Time;durP1;ratioP1;P1;durP2;ratioP2;P2;SDS_P1;SDS_P2;PMS_P1;PMS_P2;Temp;Humidity;BMP_temperature;BMP_pressure;BME280_temperature;BME280_humidity;BME280_pressure;Samples;Min_cycle;Max_cycle;Signal;HPM_P1;HPM_P2
2022/06/13 00:01:29;;;;;;;18.00;5.68;;;;;;;12.88;100.00;101961.38;4911872;29;20040;-78
2022/06/13 00:04:00;;;;;;;11.25;4.80;;;;;;;12.88;100.00;101958.75;4911700;29;20036;-78
2022/06/13 00:06:28;;;;;;;12.85;5.63;;;;;;;12.86;100.00;101939.31;4902408;29;20053;-80
2022/06/13 00:08:57;;;;;;;20.45;6.00;;;;;;;12.85;100.00;101948.16;4874238;29;20403;-80
2022/06/13 00:11:26;;;;;;;13.15;5.00;;;;;;;12.84;100.00;101945.47;4872153;29;20044;-79
2022/06/13 00:13:57;;;;;;;11.82;5.75;;;;;;;12.83;100.00;101948.97;4868461;29;20402;-78
2022/06/13 00:16:26;;;;;;;13.07;5.47;;;;;;;12.79;100.00;101940.13;4889550;29;20048;-78
2022/06/13 00:18:55;;;;;;;12.20;6.25;;;;;;;12.77;100.00;101946.28;4887614;29;20275;-80
2022/06/13 00:21:32;;;;;;;15.68;5.82;;;;;;;12.71;100.00;101949.72;4890763;29;20044;-81
2022/06/13 00:24:04;;;;;;;16.52;6.13;;;;;;;12.68;100.00;101942.66;4888935;29;20060;-79
2022/06/13 00:26:35;;;;;;;11.95;5.55;;;;;;;12.64;100.00;101940.81;4862167;29;20512;-79
2022/06/13 00:29:04;;;;;;;16.38;6.18;;;;;;;12.60;100.00;101935.50;4880100;29;20040;-79
2022/06/13 00:31:33;;;;;;;15.05;6.32;;;;;;;12.58;100.00;101940.75;4887982;29;20044;-79
2022/06/13 00:34:01;;;;;;;12.63;5.97;;;;;;;12.57;100.00;101935.44;4857436;29;20048;-79
2022/06/13 00:36:30;;;;;;;11.20;6.05;;;;;;;12.56;100.00;101933.69;4892124;29;20059;-79
2022/06/13 00:38:58;;;;;;;16.50;6.20;;;;;;;12.53;100.00;101931.88;4887458;29;20056;-80
2022/06/13 00:41:31;;;;;;;16.08;5.47;;;;;;;12.52;100.00;101926.59;4861502;29;20043;-79
2022/06/13 00:44:00;;;;;;;14.25;6.32;;;;;;;12.51;100.00;101925.69;4883433;29;20045;-80
2022/06/13 00:46:33;;;;;;;13.73;6.22;;;;;;;12.48;100.00;101926.53;4905885;29;20049;-80
2022/06/13 00:49:09;;;;;;;19.58;6.60;;;;;;;12.47;100.00;101924.75;4888491;29;20036;-80
2022/06/13 00:51:48;;;;;;;12.45;5.75;;;;;;;12.45;100.00;101923.84;4891832;29;20063;-80
2022/06/13 00:54:19;;;;;;;20.33;6.22;;;;;;;12.44;100.00;101935.31;4890448;29;20255;-80
2022/06/13 00:56:50;;;;;;;8.85;5.88;;;;;;;12.43;100.00;101932.63;4861655;29;20036;-80
2022/06/13 00:59:20;;;;;;;;;;;;;;;12.39;100.00;101930.81;4888765;29;20282;-78
2022/06/13 01:01:49;;;;;;;19.07;7.60;;;;;;;12.35;100.00;101924.59;4866974;29;20395;-80
2022/06/13 01:04:17;;;;;;;13.80;6.00;;;;;;;12.29;100.00;101925.41;4873290;29;20052;-80
2022/06/13 01:06:49;;;;;;;20.33;6.82;;;;;;;12.29;100.00;101929.81;4906063;29;20439;-78
2022/06/13 01:11:16;;;;;;;17.13;5.93;;;;;;;12.27;100.00;101928.91;4907126;29;20048;-80
2022/06/13 01:12:11;;;;;;;16.55;6.35;;;;;;;12.28;100.00;101930.69;4875136;29;20170;-80
2022/06/13 01:15:26;;;;;;;15.00;6.60;;;;;;;12.27;100.00;101916.59;4908285;29;20040;-80
2022/06/13 01:18:32;;;;;;;24.60;7.03;;;;;;;12.31;100.00;101919.28;4865462;29;20041;-78
2022/06/13 01:21:22;;;;;;;14.80;5.88;;;;;;;12.32;100.00;101913.97;4921611;29;20040;-80
2022/06/13 01:24:32;;;;;;;20.98;7.20;;;;;;;12.33;100.00;101910.50;4890815;29;20049;-79
2022/06/13 01:27:10;;;;;;;13.95;5.57;;;;;;;12.36;100.00;101914.91;4864376;29;20056;-79
2022/06/13 01:29:49;;;;;;;15.13;6.45;;;;;;;12.36;100.00;101915.81;4897215;29;20051;-78
2022/06/13 01:32:29;;;;;;;14.52;5.40;;;;;;;12.38;100.00;101910.53;4893019;29;20044;-78
2022/06/13 01:35:07;;;;;;;;;;;;;;;12.38;100.00;101907.88;4905567;29;20047;-78
2022/06/13 01:37:45;;;;;;;16.90;5.80;;;;;;;12.41;100.00;101911.47;4908849;29;20293;-79
2022/06/13 01:40:30;;;;;;;17.27;6.93;;;;;;;12.44;100.00;101914.16;4905154;29;20616;-78
2022/06/13 01:43:17;;;;;;;14.30;6.28;;;;;;;12.46;100.00;101912.41;4875024;29;20401;-79
2022/06/13 01:45:53;;;;;;;15.70;6.03;;;;;;;12.48;100.00;101913.31;4892170;29;20051;-78
2022/06/13 01:48:30;;;;;;;15.52;6.07;;;;;;;12.51;100.00;101906.28;4902988;29;20169;-78
2022/06/13 01:51:23;;;;;;;15.98;7.30;;;;;;;12.52;100.00;101897.50;4906380;29;20541;-78
2022/06/13 01:53:57;;;;;;;18.42;7.15;;;;;;;12.52;100.00;101893.09;4908573;29;20507;-80
2022/06/13 01:57:04;;;;;;;19.73;7.47;;;;;;;12.52;100.00;101884.28;4907723;29;20067;-80
2022/06/13 01:59:45;;;;;;;16.58;6.53;;;;;;;12.53;100.00;101897.50;4894776;29;20047;-80
2022/06/13 02:02:19;;;;;;;14.60;5.63;;;;;;;12.54;100.00;101891.34;4881420;29;20049;-79
2022/06/13 02:05:00;;;;;;;13.23;6.40;;;;;;;12.54;100.00;101891.34;4891978;29;20063;-78
2022/06/13 02:07:36;;;;;;;20.10;7.15;;;;;;;12.53;100.00;101899.25;4907069;29;20066;-77
2022/06/13 02:10:32;;;;;;;16.27;7.22;;;;;;;12.56;100.00;101896.66;4890597;29;20258;-79
2022/06/13 02:13:06;;;;;;;16.13;6.35;;;;;;;12.57;100.00;101879.91;4905053;29;20040;-80
2022/06/13 02:15:45;;;;;;;18.90;6.97;;;;;;;12.62;100.00;101875.56;4869661;29;20045;-79
2022/06/13 02:18:21;;;;;;;15.35;6.90;;;;;;;12.63;100.00;101887.94;4888740;29;20056;-79
2022/06/13 02:20:53;;;;;;;18.25;7.30;;;;;;;12.64;100.00;101901.16;4908811;29;20052;-79
2022/06/13 02:23:28;;;;;;;18.17;6.43;;;;;;;12.65;100.00;101895.00;4905620;29;20250;-79
2022/06/13 02:26:08;;;;;;;14.13;6.97;;;;;;;12.67;100.00;101892.38;4888182;29;20040;-80
2022/06/13 02:28:57;;;;;;;18.20;6.47;;;;;;;12.70;100.00;101899.47;4908420;29;20394;-79
2022/06/13 02:31:36;;;;;;;17.30;7.18;;;;;;;12.70;100.00;101888.88;4898258;29;20036;-79
2022/06/13 02:34:12;;;;;;;17.13;7.22;;;;;;;12.71;100.00;101895.97;4887695;29;20072;-79
2022/06/13 02:36:51;;;;;;;16.05;6.45;;;;;;;12.71;100.00;101894.19;4906217;29;20040;-79
2022/06/13 02:39:34;;;;;;;20.13;7.03;;;;;;;12.72;100.00;101882.75;4904821;29;20267;-80
2022/06/13 02:42:15;;;;;;;17.75;6.15;;;;;;;12.74;100.00;101885.41;4871882;29;20070;-80
2022/06/13 02:44:58;;;;;;;17.55;6.55;;;;;;;12.75;100.00;101882.78;4861036;29;20496;-79
2022/06/13 02:47:37;;;;;;;13.88;6.70;;;;;;;12.74;100.00;101893.34;4907018;29;20051;-79
2022/06/13 02:50:31;;;;;;;11.70;6.35;;;;;;;12.77;100.00;101885.44;4886306;29;20595;-79
2022/06/13 02:53:34;;;;;;;14.88;6.93;;;;;;;12.77;100.00;101883.69;4904274;29;20048;-79
2022/06/13 03:00:03;;;;;;;13.07;6.63;;;;;;;12.74;100.00;101891.59;4882949;29;20062;-79
2022/06/13 03:02:44;;;;;;;15.65;6.28;;;;;;;12.72;100.00;101882.75;4905584;29;20051;-80
2022/06/13 03:05:30;;;;;;;13.88;6.15;;;;;;;12.68;100.00;101886.22;4872326;29;20660;-79
2022/06/13 03:08:29;;;;;;;19.20;7.30;;;;;;;12.66;100.00;101883.59;4888715;29;20414;-80
2022/06/13 03:11:38;;;;;;;14.98;6.32;;;;;;;12.65;100.00;101880.91;4918994;29;20048;-79
2022/06/13 03:14:13;;;;;;;19.45;6.30;;;;;;;12.62;100.00;101875.56;4903606;29;20185;-79
2022/06/13 03:16:51;;;;;;;14.32;6.28;;;;;;;12.63;100.00;101864.16;4877389;29;20048;-79
2022/06/13 03:19:35;;;;;;;13.52;6.15;;;;;;;12.62;100.00;101870.28;4904409;29;20270;-79
2022/06/13 03:22:16;;;;;;;14.15;5.93;;;;;;;12.63;100.00;101864.16;4863905;29;20056;-80
2022/06/13 03:24:59;;;;;;;17.88;6.38;;;;;;;12.65;100.00;101865.94;4878279;29;20449;-79
2022/06/13 03:27:39;;;;;;;15.40;6.70;;;;;;;12.67;100.00;101871.25;4906696;29;20052;-79
2022/06/13 03:30:12;;;;;;;19.08;7.05;;;;;;;12.68;100.00;101871.25;4902391;29;20155;-79
2022/06/13 03:33:39;;;;;;;17.98;6.32;;;;;;;12.66;100.00;101872.09;4880554;29;20060;-79
2022/06/13 03:35:40;;;;;;;16.08;6.65;;;;;;;12.64;100.00;101874.72;4918534;29;20055;-79
2022/06/13 03:38:15;;;;;;;14.38;6.32;;;;;;;12.64;100.00;101873.84;4896766;29;20433;-80
2022/06/13 03:40:50;;;;;;;15.60;6.20;;;;;;;12.64;100.00;101881.78;4891628;29;20390;-79
2022/06/13 03:43:33;;;;;;;21.75;7.07;;;;;;;12.64;100.00;101882.66;4907121;29;20707;-79
2022/06/13 03:46:14;;;;;;;10.40;6.07;;;;;;;12.66;100.00;101882.66;4909530;29;20056;-80
2022/06/13 03:49:09;;;;;;;;;;;;;;;12.66;100.00;101877.38;4895131;29;20512;-78
2022/06/13 03:51:43;;;;;;;11.52;6.03;;;;;;;12.65;100.00;101881.78;4874343;29;19923;-78
2022/06/13 03:54:34;;;;;;;15.18;5.70;;;;;;;12.65;100.00;101881.78;4884219;29;20274;-78
2022/06/13 03:57:26;;;;;;;15.57;5.43;;;;;;;12.67;100.00;101879.16;4919230;29;20052;-80
2022/06/13 04:00:15;;;;;;;11.05;5.07;;;;;;;12.68;100.00;101879.19;4910934;29;20036;-78
2022/06/13 04:02:44;;;;;;;20.90;6.57;;;;;;;12.67;100.00;101884.47;4895938;29;20056;-78
2022/06/13 04:05:37;;;;;;;17.05;5.25;;;;;;;12.66;100.00;101888.88;4882720;29;20063;-79
2022/06/13 04:08:08;;;;;;;12.77;5.75;;;;;;;12.67;100.00;101892.38;4900689;29;20048;-78
2022/06/13 04:11:10;;;;;;;17.00;5.40;;;;;;;12.69;100.00;101893.28;4900846;29;20044;-80
2022/06/13 04:14:01;;;;;;;14.70;5.35;;;;;;;12.70;100.00;101888.88;4907577;29;20379;-79
2022/06/13 04:16:46;;;;;;;11.98;4.93;;;;;;;12.70;100.00;101891.53;4893967;29;20060;-78
2022/06/13 04:19:36;;;;;;;9.27;4.38;;;;;;;12.71;100.00;101883.63;4879501;29;20056;-78
2022/06/13 04:22:04;;;;;;;12.98;4.47;;;;;;;12.73;100.00;101879.22;4901023;29;20050;-78
2022/06/13 04:24:52;;;;;;;13.55;4.88;;;;;;;12.74;100.00;101883.66;4910159;29;20044;-78
2022/06/13 04:27:31;;;;;;;11.95;4.80;;;;;;;12.76;100.00;101891.59;4912481;29;20177;-78
2022/06/13 04:30:10;;;;;;;9.85;4.25;;;;;;;12.74;100.00;101880.09;4911303;29;20075;-80
2022/06/13 04:32:49;;;;;;;11.80;4.72;;;;;;;12.75;100.00;101884.53;4895973;29;20044;-79
2022/06/13 04:35:19;;;;;;;9.98;4.88;;;;;;;12.75;100.00;101893.34;4878891;29;20258;-78
2022/06/13 04:37:49;;;;;;;7.45;3.80;;;;;;;12.80;100.00;101885.50;4882288;29;20040;-79
2022/06/13 04:40:25;;;;;;;16.67;4.72;;;;;;;12.85;100.00;101884.66;4906305;29;20059;-79
2022/06/13 04:42:55;;;;;;;12.43;4.90;;;;;;;12.89;100.00;101872.31;4911286;29;20059;-79
2022/06/13 04:45:28;;;;;;;11.75;4.95;;;;;;;12.94;100.00;101889.13;4879393;29;20051;-78
2022/06/13 04:47:58;;;;;;;12.63;4.18;;;;;;;13.01;100.00;101882.16;4909758;29;20055;-78
2022/06/13 04:50:34;;;;;;;13.10;4.28;;;;;;;13.07;100.00;101884.88;4881248;29;20070;-78
2022/06/13 04:53:06;;;;;;;15.57;5.18;;;;;;;13.12;100.00;101876.94;4900417;29;20048;-78
2022/06/13 04:55:42;;;;;;;14.07;4.35;;;;;;;13.20;100.00;101884.09;4903754;29;20052;-78
2022/06/13 04:58:22;;;;;;;10.57;3.90;;;;;;;13.27;100.00;101893.88;4906969;29;20082;-80
2022/06/13 05:00:58;;;;;;;8.95;4.03;;;;;;;13.38;100.00;101896.66;4910767;29;20418;-80
2022/06/13 05:03:30;;;;;;;14.15;4.18;;;;;;;13.44;100.00;101895.81;4908891;29;20079;-77
2022/06/13 05:06:05;;;;;;;10.05;4.03;;;;;;;13.48;100.00;101915.25;4879370;29;20044;-80
2022/06/13 05:08:36;;;;;;;12.27;4.20;;;;;;;13.50;100.00;101910.88;4893643;29;20051;-78
2022/06/13 05:11:23;;;;;;;9.73;3.55;;;;;;;13.46;100.00;101915.25;4896883;29;20048;-78
2022/06/13 05:14:10;;;;;;;8.63;3.38;;;;;;;13.43;100.00;101936.41;4911761;29;20055;-80
2022/06/13 05:17:04;;;;;;;10.07;3.78;;;;;;;13.37;100.00;101946.94;4912368;29;20052;-80
2022/06/13 05:20:03;;;;;;;7.32;2.83;;;;;;;13.27;100.00;101960.06;4910137;29;20494;-79
2022/06/13 05:23:01;;;;;;;6.85;2.45;;;;;;;13.09;100.00;101943.09;4905551;29;20059;-79
2022/06/13 05:25:45;;;;;;;2.22;1.40;;;;;;;12.90;100.00;101952.59;4902443;29;20056;-79
2022/06/13 05:28:29;;;;;;;3.97;1.50;;;;;;;12.75;100.00;101951.53;4914188;29;20043;-78
2022/06/13 05:31:00;;;;;;;1.48;0.95;;;;;;;12.61;100.00;101950.50;4914764;29;20044;-80
2022/06/13 05:33:34;;;;;;;2.25;1.10;;;;;;;12.50;100.00;101960.06;4922011;29;20508;-78
2022/06/13 05:36:05;;;;;;;4.28;1.00;;;;;;;12.45;100.00;101957.34;4875619;29;20036;-81
2022/06/13 05:38:35;;;;;;;1.75;1.20;;;;;;;12.43;100.00;101970.53;4910836;29;20052;-80
2022/06/13 05:41:03;;;;;;;4.70;1.50;;;;;;;12.44;100.00;101969.66;4894661;29;20367;-78
2022/06/13 05:43:32;;;;;;;3.53;1.45;;;;;;;12.51;100.00;101962.69;4879173;29;20147;-78
2022/06/13 05:46:02;;;;;;;4.13;1.48;;;;;;;12.56;100.00;101966.28;4907854;29;20063;-79
2022/06/13 05:48:34;;;;;;;8.27;1.63;;;;;;;12.59;100.00;101974.28;4895655;29;20048;-79
2022/06/13 05:51:02;;;;;;;3.80;1.65;;;;;;;12.62;100.00;101965.47;4881887;29;20039;-79
2022/06/13 05:53:31;;;;;;;5.00;1.60;;;;;;;12.63;100.00;101954.06;4889295;29;20066;-79
2022/06/13 05:56:02;;;;;;;6.70;1.80;;;;;;;12.81;100.00;101963.94;4871372;29;20045;-79
2022/06/13 05:58:30;;;;;;;;;;;;;;;13.03;100.00;101968.63;4905298;29;20055;-79
2022/06/13 06:01:01;;;;;;;7.47;2.28;;;;;;;13.17;100.00;101965.22;4907902;29;19927;-79
2022/06/13 06:03:29;;;;;;;;;;;;;;;13.44;100.00;101962.00;4894275;29;20048;-79
2022/06/13 06:06:00;;;;;;;7.30;1.80;;;;;;;13.82;100.00;101958.78;4906948;29;20191;-79
2022/06/13 06:08:31;;;;;;;3.90;1.52;;;;;;;14.53;100.00;101967.16;4865745;29;20044;-79
2022/06/13 06:11:00;;;;;;;4.20;1.25;;;;;;;15.10;100.00;101960.31;4901859;29;20056;-79
2022/06/13 06:13:30;;;;;;;9.52;2.10;;;;;;;15.58;100.00;101960.38;4878192;29;20055;-79
2022/06/13 06:16:00;;;;;;;7.43;1.98;;;;;;;15.84;100.00;101963.06;4908891;29;20051;-79
2022/06/13 06:18:29;;;;;;;4.40;1.95;;;;;;;16.16;100.00;101960.34;4908929;29;20383;-79
2022/06/13 06:20:59;;;;;;;4.20;1.27;;;;;;;16.51;100.00;101958.47;4892707;29;20059;-79
2022/06/13 06:23:27;;;;;;;5.72;1.60;;;;;;;16.94;100.00;101963.63;4880372;29;20052;-79
2022/06/13 06:25:58;;;;;;;4.72;1.55;;;;;;;17.19;100.00;101958.16;4891868;29;20048;-79
2022/06/13 06:28:27;;;;;;;3.75;1.33;;;;;;;17.22;100.00;101967.03;4870291;29;20087;-79
2022/06/13 06:30:57;;;;;;;5.25;1.65;;;;;;;17.24;100.00;101972.31;4876831;29;20035;-79
2022/06/13 06:33:27;;;;;;;5.97;1.67;;;;;;;17.12;100.00;101973.28;4893378;29;20068;-78
2022/06/13 06:35:56;;;;;;;5.73;1.67;;;;;;;16.92;100.00;101981.41;4877230;29;20036;-79
2022/06/13 06:38:26;;;;;;;5.03;1.55;;;;;;;16.61;100.00;101984.16;4875197;29;20360;-79
2022/06/13 06:40:55;;;;;;;6.22;1.48;;;;;;;16.17;100.00;101986.03;4902556;29;20059;-79
2022/06/13 06:43:24;;;;;;;3.17;1.35;;;;;;;15.90;100.00;101986.09;4891517;29;20049;-79
2022/06/13 06:45:53;;;;;;;8.82;1.48;;;;;;;15.54;100.00;101999.34;4876923;29;20130;-79
2022/06/13 06:48:24;;;;;;;6.25;1.63;;;;;;;15.16;100.00;101997.50;4892173;29;20040;-78
2022/06/13 06:50:56;;;;;;;6.93;1.73;;;;;;;14.72;100.00;101995.56;4888040;29;20045;-79
2022/06/13 06:53:27;;;;;;;6.70;1.33;;;;;;;14.45;100.00;101990.13;4892092;29;20243;-80
2022/06/13 07:01:29;;;;;;;7.18;1.77;;;;;;;13.90;100.00;102007.41;4908595;29;20044;-78
2022/06/13 07:04:01;;;;;;;5.28;1.75;;;;;;;13.81;100.00;101994.09;4876170;29;20048;-79
2022/06/13 07:06:29;;;;;;;4.72;1.48;;;;;;;13.73;100.00;101998.44;4908706;29;20036;-78
2022/06/13 07:08:57;;;;;;;5.25;2.05;;;;;;;13.71;100.00;102001.09;4905838;29;20048;-79
2022/06/13 07:14:13;;;;;;;3.95;1.60;;;;;;;13.98;100.00;102004.81;4883864;29;20270;-78
2022/06/13 07:16:41;;;;;;;5.97;1.33;;;;;;;14.18;100.00;102002.34;4891405;29;20044;-79
2022/06/13 07:19:11;;;;;;;3.13;1.67;;;;;;;14.37;100.00;102001.56;4890811;29;20083;-79
2022/06/13 07:21:40;;;;;;;1.98;1.00;;;;;;;14.56;100.00;101991.06;4901350;29;20074;-78
2022/06/13 07:24:10;;;;;;;8.25;1.77;;;;;;;14.71;100.00;101992.94;4902468;29;20044;-78
2022/06/13 07:26:39;;;;;;;6.55;1.45;;;;;;;14.79;100.00;101991.19;4876043;29;20047;-79
2022/06/13 07:29:07;;;;;;;6.78;1.50;;;;;;;14.97;100.00;101995.66;4921734;29;20052;-78
2022/06/13 07:31:36;;;;;;;2.10;1.00;;;;;;;15.04;100.00;102002.75;4907550;29;20045;-79
2022/06/13 07:34:06;;;;;;;6.07;1.58;;;;;;;15.01;100.00;102011.63;4903407;29;20052;-78
2022/06/13 07:36:35;;;;;;;5.63;1.48;;;;;;;14.93;100.00;102010.72;4906084;29;20055;-80
2022/06/13 07:39:03;;;;;;;2.33;1.35;;;;;;;14.77;100.00;102003.56;4887701;29;20253;-79
2022/06/13 07:41:32;;;;;;;4.97;1.75;;;;;;;14.59;100.00;102021.19;4883427;29;20047;-78
2022/06/13 07:44:00;;;;;;;4.43;1.45;;;;;;;14.45;100.00;102021.94;4904732;29;20044;-78
2022/06/13 07:46:30;;;;;;;3.80;1.40;;;;;;;14.30;100.00;102017.44;4909527;29;20051;-79
2022/06/13 07:49:00;;;;;;;4.72;1.55;;;;;;;14.16;100.00;102015.56;4907574;29;20250;-78
2022/06/13 07:51:28;;;;;;;7.95;1.48;;;;;;;14.10;100.00;102015.53;4909495;29;20293;-79
2022/06/13 07:53:57;;;;;;;3.80;1.30;;;;;;;14.14;100.00;102021.72;4861701;29;20051;-79
2022/06/13 07:56:30;;;;;;;3.03;1.15;;;;;;;14.22;100.00;102014.72;4892686;29;20082;-79
2022/06/13 07:58:59;;;;;;;4.82;1.38;;;;;;;14.33;100.00;102018.34;4902443;29;20399;-79
2022/06/13 08:01:28;;;;;;;4.70;1.52;;;;;;;14.49;100.00;102013.13;4889905;29;20067;-79
2022/06/13 08:03:57;;;;;;;3.83;1.52;;;;;;;14.61;100.00;102019.41;4905151;29;20162;-78
2022/06/13 08:06:26;;;;;;;5.38;1.75;;;;;;;14.71;100.00;102024.78;4910453;29;20064;-78
2022/06/13 08:08:55;;;;;;;3.78;1.30;;;;;;;14.85;100.00;102020.41;4876814;29;20049;-79
2022/06/13 08:11:34;;;;;;;7.47;1.50;;;;;;;14.93;100.00;102018.69;4907169;29;20055;-79
2022/06/13 08:14:03;;;;;;;8.13;1.52;;;;;;;15.03;100.00;102027.56;4872973;29;20292;-78
2022/06/13 08:16:34;;;;;;;13.40;2.25;;;;;;;15.02;100.00;102031.94;4892208;29;20052;-79
2022/06/13 08:19:03;;;;;;;8.57;1.30;;;;;;;15.07;100.00;102029.34;4911275;29;20055;-79
2022/06/13 08:21:35;;;;;;;6.72;1.90;;;;;;;15.10;100.00;102031.09;4919232;29;20044;-79
2022/06/13 08:24:05;;;;;;;5.55;1.30;;;;;;;15.09;100.00;102024.91;4886596;29;20576;-79
2022/06/13 08:26:41;;;;;;;7.65;1.50;;;;;;;15.20;100.00;102038.22;4905941;29;20044;-79
2022/06/13 08:29:10;;;;;;;4.85;1.98;;;;;;;15.29;100.00;102040.91;4866740;29;20048;-79
2022/06/13 08:31:39;;;;;;;6.32;1.85;;;;;;;15.38;100.00;102048.88;4909672;29;20394;-80
2022/06/13 08:34:08;;;;;;;4.88;1.30;;;;;;;15.44;100.00;102039.16;4882191;29;20079;-80
2022/06/13 08:36:36;;;;;;;4.63;1.63;;;;;;;15.46;100.00;102043.59;4893274;29;20398;-80
2022/06/13 08:39:05;;;;;;;3.65;1.10;;;;;;;15.41;100.00;102056.00;4905861;29;20266;-78
2022/06/13 08:41:36;;;;;;;5.68;1.30;;;;;;;15.46;100.00;102048.91;4911665;29;20402;-80
2022/06/13 08:44:49;;;;;;;5.88;1.42;;;;;;;15.50;100.00;102065.72;4880169;29;20202;-79
2022/06/13 08:47:43;;;;;;;8.90;1.55;;;;;;;15.37;100.00;102064.84;4850007;29;20052;-78
2022/06/13 08:50:43;;;;;;;5.05;1.30;;;;;;;15.21;100.00;102072.72;4856683;29;20073;-79
2022/06/13 08:53:21;;;;;;;8.60;1.45;;;;;;;15.28;100.00;102071.00;4894484;29;20076;-80
2022/06/13 08:56:07;;;;;;;4.22;1.10;;;;;;;15.39;100.00;102065.72;4900099;29;20048;-80
2022/06/13 08:59:22;;;;;;;3.67;1.10;;;;;;;15.47;99.55;102066.63;4878433;29;20052;-81
2022/06/13 09:02:02;;;;;;;3.00;1.60;;;;;;;15.68;100.00;102070.22;4878753;29;20063;-79
2022/06/13 09:04:38;;;;;;;6.03;1.42;;;;;;;15.72;100.00;102072.84;4894593;29;20063;-80
2022/06/13 09:07:16;;;;;;;3.88;1.30;;;;;;;15.63;99.91;102086.13;4909477;29;20298;-79
2022/06/13 09:10:00;;;;;;;3.85;1.15;;;;;;;15.54;100.00;102089.66;4909179;29;20520;-80
2022/06/13 09:12:45;;;;;;;5.68;1.10;;;;;;;15.50;100.00;102093.19;4899092;29;20048;-80
2022/06/13 09:15:18;;;;;;;3.45;1.10;;;;;;;15.42;100.00;102104.69;4887203;29;20797;-79
2022/06/13 09:18:09;;;;;;;3.75;1.40;;;;;;;15.30;100.00;102100.22;4907173;29;20445;-80
2022/06/13 09:20:44;;;;;;;3.45;1.30;;;;;;;15.20;100.00;102094.88;4908980;29;20040;-79
2022/06/13 09:23:19;;;;;;;4.60;1.55;;;;;;;15.13;100.00;102103.69;4911459;29;20413;-79
2022/06/13 09:26:09;;;;;;;6.10;1.40;;;;;;;15.14;99.90;102105.47;4909356;29;20372;-80
2022/06/13 09:29:14;;;;;;;11.20;2.15;;;;;;;15.19;100.00;102111.66;4893057;29;20598;-79
2022/06/13 09:31:53;;;;;;;5.97;1.70;;;;;;;15.39;100.00;102108.22;4852400;29;20056;-80
2022/06/13 09:34:27;;;;;;;3.55;1.20;;;;;;;15.62;99.66;102107.41;4921316;29;20051;-79
2022/06/13 09:37:13;;;;;;;8.38;1.90;;;;;;;15.71;97.82;102105.66;4896877;29;20055;-79
2022/06/13 09:39:42;;;;;;;4.93;1.95;;;;;;;15.70;98.34;102109.16;4907133;29;20052;-79
2022/06/13 09:42:30;;;;;;;5.57;1.70;;;;;;;15.71;98.74;102110.09;4879754;29;20059;-79
2022/06/13 09:45:17;;;;;;;3.38;1.33;;;;;;;15.69;99.53;102119.78;4885573;29;20626;-79
2022/06/13 09:47:58;;;;;;;8.13;1.70;;;;;;;15.63;99.54;102110.03;4917935;29;20063;-79
2022/06/13 09:50:36;;;;;;;6.75;1.58;;;;;;;15.72;98.58;102103.88;4907002;29;20051;-79
2022/06/13 09:53:17;;;;;;;3.80;1.40;;;;;;;16.00;97.92;102120.78;4886505;29;20055;-79
2022/06/13 09:55:56;;;;;;;10.20;1.63;;;;;;;16.30;97.62;102113.69;4910774;29;20036;-79
2022/06/13 09:58:55;;;;;;;6.75;1.92;;;;;;;16.31;97.35;102126.09;4911862;29;20048;-79
2022/06/13 10:01:39;;;;;;;6.82;2.05;;;;;;;16.19;97.89;102132.31;4888329;29;20052;-79
2022/06/13 10:04:26;;;;;;;8.45;1.90;;;;;;;15.94;97.64;102139.38;4915387;29;20060;-79
2022/06/13 10:07:19;;;;;;;7.03;2.10;;;;;;;15.74;98.21;102136.69;4912227;29;20680;-79
2022/06/13 10:09:50;;;;;;;7.88;2.13;;;;;;;15.59;98.85;102132.16;4907223;29;20039;-79
2022/06/13 10:12:29;;;;;;;10.93;3.08;;;;;;;15.54;98.96;102134.81;4910772;29;20052;-78
2022/06/13 10:15:00;;;;;;;8.02;2.25;;;;;;;15.67;98.50;102129.53;4908293;29;20032;-78
2022/06/13 10:17:49;;;;;;;10.00;2.28;;;;;;;15.81;99.00;102134.94;4882549;29;20044;-78
2022/06/13 10:20:40;;;;;;;8.80;1.80;;;;;;;16.01;94.73;102133.19;4909999;29;20063;-78
2022/06/13 10:23:39;;;;;;;9.13;2.20;;;;;;;16.24;95.65;102135.88;4884079;29;20056;-78
2022/06/13 10:26:26;;;;;;;5.57;2.10;;;;;;;16.35;94.89;102152.72;4916780;29;20039;-78
2022/06/13 10:29:26;;;;;;;8.98;1.80;;;;;;;16.23;89.03;102143.84;4913985;29;20056;-78
2022/06/13 10:32:09;;;;;;;6.88;1.65;;;;;;;16.15;90.15;102133.19;4879255;29;20052;-78
2022/06/13 10:35:02;;;;;;;5.05;1.90;;;;;;;16.19;89.20;102142.94;4917043;29;20063;-80
2022/06/13 10:37:51;;;;;;;8.35;1.83;;;;;;;16.26;88.65;102144.72;4908226;29;20067;-80
2022/06/13 10:40:20;;;;;;;4.95;1.50;;;;;;;16.32;88.90;102143.84;4910300;29;20036;-80
2022/06/13 10:42:49;;;;;;;13.45;2.60;;;;;;;16.37;90.22;102140.28;4874830;29;20067;-78
2022/06/13 10:45:18;;;;;;;7.53;2.00;;;;;;;16.47;88.14;102142.97;4909243;29;20044;-78
2022/06/13 10:48:00;;;;;;;9.30;1.80;;;;;;;16.65;87.79;102150.03;4876915;29;20982;-80
2022/06/13 10:50:41;;;;;;;10.15;1.95;;;;;;;16.91;87.78;102145.56;4882640;29;20036;-78
2022/06/13 10:53:44;;;;;;;7.63;2.50;;;;;;;17.24;88.08;102148.13;4910808;29;20052;-78
2022/06/13 10:56:19;;;;;;;10.93;2.10;;;;;;;17.39;87.11;102148.09;4880181;29;20056;-78
2022/06/13 10:58:58;;;;;;;11.20;2.25;;;;;;;17.36;86.90;102149.88;4903145;29;20048;-78
2022/06/13 11:01:30;;;;;;;7.72;2.17;;;;;;;17.30;87.31;102150.78;4904187;29;20055;-78
2022/06/13 11:04:01;;;;;;;7.82;1.80;;;;;;;17.11;87.92;102156.16;4867756;29;20510;-78
2022/06/13 11:06:36;;;;;;;9.80;2.17;;;;;;;16.98;86.43;102156.22;4903655;29;20071;-78
2022/06/13 11:09:19;;;;;;;9.25;2.30;;;;;;;16.84;87.62;102169.53;4908468;29;20182;-78
2022/06/13 11:11:57;;;;;;;9.82;2.72;;;;;;;16.65;88.64;102166.88;4904659;29;20059;-78
2022/06/13 11:14:35;;;;;;;11.23;2.75;;;;;;;16.64;89.42;102173.09;4908478;29;20416;-81
2022/06/13 11:22:59;;;;;;;8.20;2.13;;;;;;;16.66;88.79;102189.06;4908258;29;20640;-81
2022/06/13 11:25:31;;;;;;;12.38;2.53;;;;;;;16.57;89.42;102176.63;4910446;29;20141;-80
2022/06/13 11:28:14;;;;;;;9.45;2.17;;;;;;;16.57;86.99;102180.19;4908726;29;20430;-80
2022/06/13 11:30:46;;;;;;;11.48;2.28;;;;;;;16.71;89.60;102177.53;4905897;29;20040;-80
2022/06/13 11:33:26;;;;;;;10.85;2.00;;;;;;;16.86;89.47;102173.09;4909958;29;20059;-80
2022/06/13 11:36:16;;;;;;;7.55;2.30;;;;;;;17.10;87.37;102178.34;4869168;29;20194;-80
2022/06/13 11:38:56;;;;;;;9.85;1.85;;;;;;;17.28;86.98;102181.88;4906425;29;20048;-80
2022/06/13 11:41:39;;;;;;;10.73;2.35;;;;;;;17.50;85.91;102178.25;4911349;29;20052;-79
2022/06/13 11:44:13;;;;;;;5.20;1.90;;;;;;;17.61;84.62;102185.28;4892970;29;20056;-80
2022/06/13 11:46:59;;;;;;;7.70;1.55;;;;;;;17.61;83.61;102172.84;4890686;29;20044;-80
2022/06/13 11:49:42;;;;;;;7.68;1.70;;;;;;;17.79;85.21;102177.19;4909275;29;20052;-80
2022/06/13 11:52:10;;;;;;;12.80;1.65;;;;;;;17.93;82.78;102183.34;4861826;29;20402;-80
2022/06/13 11:54:51;;;;;;;7.43;1.35;;;;;;;17.99;80.77;102194.88;4922128;29;20040;-80
2022/06/13 11:57:34;;;;;;;;;;;;;;;17.91;77.58;102190.47;4916712;29;20044;-80
2022/06/13 12:00:23;;;;;;;5.05;1.70;;;;;;;17.71;82.52;102187.91;4906331;29;20554;-80
2022/06/13 12:03:05;;;;;;;10.10;1.60;;;;;;;17.79;82.79;102189.63;4905261;29;20052;-80
2022/06/13 12:05:38;;;;;;;5.90;1.33;;;;;;;17.93;80.15;102194.00;4927409;29;20073;-80
2022/06/13 12:08:07;;;;;;;4.30;1.10;;;;;;;18.03;77.71;102185.97;4872567;29;20045;-80
2022/06/13 12:10:41;;;;;;;2.88;1.10;;;;;;;18.14;78.02;102201.91;4891257;29;20055;-80
2022/06/13 12:13:16;;;;;;;4.20;1.00;;;;;;;18.28;75.90;102194.69;4912949;29;20063;-80
2022/06/13 12:15:59;;;;;;;4.90;1.38;;;;;;;18.32;77.08;102201.78;4908731;29;20040;-80
2022/06/13 12:18:30;;;;;;;3.83;1.48;;;;;;;18.39;77.54;102203.50;4913027;29;20056;-80
2022/06/13 12:21:17;;;;;;;3.33;1.10;;;;;;;18.26;76.49;102215.13;4910965;29;20060;-80
2022/06/13 12:23:54;;;;;;;8.32;1.95;;;;;;;18.16;78.15;102209.00;4880572;29;20052;-81